Anchorage/Elmendorf AFB, Alaska
Current Conditions -  °F | °C
As of 5:58 AM on Tuesday 21 Oct 2014 (Local Time) from PAED Reporting Station
Overcast Overcast  
Wind Chill: 30°   Ceiling: 6500
Heat Index: 34°   Visibility: 10mi
Dew Point: 33°   Wind: 5mph
Humidity: 96%   Direction: 20°NNE
Pressure: 29.29"   Gusts: NA
Location:  61.25°N, 149.79°W
Report Text: PAED 211358Z AUTO 02004KT 10SM OVC065 01/00 A2929 RMK AO2 SLP916 T00100004 $
Loading
Personal Weather Stations






























Interactive Weather Map New forecast layout! Learn more

10-Day Weather Forecast

Advertisements
Track Severe Weather on mobile